メインページ
METAR-TAF:

METAR-TAF

空港 :

レゾリュート, ヌナブト準州, カナダ

緯度: 74-43N, 経度: 094-59W, 海抜: 67m

現時点の気象観測

当レポートは1時間4分前の11:00(UTC)に作成
北/北西の風 6kt
気温 -36°C
湿度 66%
気圧 1016 hPa
視程: 24.1km
高度7000ftの雲はほとんどない

METAR: CYRB 241100Z 34006KT 15SM FEW070 M36/M40 A3000 RMK AC1 AC TR SLP176

時間: 07:04 (12:04 UTC)

予報

当レポートは26分前の11:38(UTC)に作成
予報は24日の 12時(UTC)から 25日の 12時(UTC)まで有効
北/北西の風 6kt
視程: 10km
高度7000ftの雲はほとんどない
24日の 1500時(UTC)から
の風 8kt
視程: 10km
高度2000ftの雲は散在している
24日の 15時(UTC)から 24日の 18時(UTC)まで一時的に
視程: 8.0km
高度2000ftの千切れ雲あり
氷晶
24日の 1800時(UTC)から
の風 8kt
視程: 10km
高度800ftの雲は散在している
高度3000ftの千切れ雲あり
24日の 18時(UTC)から 25日の 12時(UTC)まで一時的に
視程: 6.4km
高度800ftの千切れ雲あり
高度1500ftの曇り
小雪

TAF: CYRB 241138Z 2412/2512 34006KT P6SM FEW070 FM241500 35008KT P6SM SCT020 TEMPO 2415/2418 5SM IC BKN020 FM241800 35008KT P6SM SCT008 BKN030 TEMPO 2418/2512 4SM -SN BKN008 OVC015 RMK NXT FCST BY 241800Z

4,000以上の空港の気象観測と天気予報(METAR報とTAF報)

利用可能な観測所は地図上に黄色い丸と赤い丸で示す。

丸の上にカーソルを重ねると観測所名を参照できる。

次にクリックすると気象観測と天気予報を参照できる。

マップの切り替え:黒色「×」印の緑ボタンをクリックして拡大、「-」印の緑ボタンをクリックして縮小、緑色の三角印をクリックして隣りの地図に切り替え


METAR-TAF: